createdAt,value
2016-09-14T05:43:04.572Z,20.24
2016-09-14T05:44:05.199Z,20.28
2016-09-14T05:45:05.857Z,20.24
2016-09-14T05:46:06.505Z,20.34
2016-09-14T05:47:07.206Z,20.34
2016-09-14T05:48:07.937Z,20.29
2016-09-14T05:49:08.621Z,20.36
2016-09-14T05:50:09.311Z,20.4
2016-09-14T05:51:09.987Z,20.4
2016-09-14T05:52:10.651Z,20.43
2016-09-14T05:53:11.311Z,20.41
2016-09-14T05:54:12.141Z,20.43
2016-09-14T05:55:12.987Z,20.51
2016-09-14T05:56:13.951Z,20.5
2016-09-14T05:57:14.640Z,20.5
2016-09-14T05:58:15.284Z,20.55
2016-09-14T05:59:15.959Z,20.56
2016-09-14T06:00:16.634Z,20.52
2016-09-14T06:01:17.402Z,20.55
2016-09-14T06:02:18.419Z,20.5
2016-09-14T06:03:19.066Z,20.5
2016-09-14T06:04:19.927Z,20.5
2016-09-14T06:05:22.167Z,20.69
2016-09-14T06:06:24.117Z,20.63
2016-09-14T06:07:24.788Z,20.66
2016-09-14T06:08:25.472Z,20.67
2016-09-14T06:09:26.145Z,20.7
2016-09-14T06:10:26.807Z,20.77
2016-09-14T06:11:27.504Z,20.66
2016-09-14T06:12:28.702Z,20.7
2016-09-14T06:13:29.387Z,20.66
2016-09-14T06:14:30.159Z,20.7
2016-09-14T06:15:30.833Z,20.7
2016-09-14T06:16:31.515Z,20.77
2016-09-14T06:17:32.188Z,20.75
2016-09-14T06:18:32.882Z,20.87
2016-09-14T06:19:33.658Z,21.07
2016-09-14T06:20:34.465Z,21.39
2016-09-14T06:21:35.157Z,21.61
2016-09-14T06:22:35.818Z,21.75
2016-09-14T06:23:36.485Z,21.8
2016-09-14T06:24:37.154Z,21.73
2016-09-14T06:25:37.853Z,21.6
2016-09-14T06:26:38.872Z,21.48
2016-09-14T06:27:39.550Z,21.46
2016-09-14T06:28:40.206Z,21.46
2016-09-14T06:29:40.918Z,21.4
2016-09-14T06:30:41.677Z,21.33
2016-09-14T06:31:42.363Z,21.3
2016-09-14T06:32:45.038Z,21.32
2016-09-14T06:33:45.387Z,21.4
2016-09-14T06:34:46.671Z,21.42
2016-09-14T06:35:49.176Z,21.45
2016-09-14T06:36:50.215Z,21.52
2016-09-14T06:37:53.626Z,21.58
2016-09-14T06:38:53.841Z,21.77
2016-09-14T06:39:54.520Z,21.98
2016-09-14T06:40:55.212Z,22.45
2016-09-14T06:41:55.875Z,22.76
2016-09-14T06:42:56.582Z,23.13
2016-09-14T06:43:57.269Z,23.36
2016-09-14T06:44:57.956Z,23.78
2016-09-14T06:45:58.663Z,24.1
2016-09-14T06:46:59.332Z,24.02
2016-09-14T06:47:59.973Z,24.32
2016-09-14T06:49:00.700Z,24.3
2016-09-14T06:50:01.320Z,24.32
2016-09-14T06:51:01.984Z,24.3
2016-09-14T06:52:02.644Z,24.5
2016-09-14T06:53:03.300Z,24.33
2016-09-14T06:54:03.963Z,24.28
2016-09-14T06:55:04.645Z,24.28
2016-09-14T06:56:05.339Z,24.17
2016-09-14T06:57:06.028Z,24.3
2016-09-14T06:58:06.696Z,24.2
2016-09-14T06:59:07.422Z,24.36
2016-09-14T07:00:08.052Z,24.53
2016-09-14T07:01:08.832Z,24.68
2016-09-14T07:02:09.508Z,25.01
2016-09-14T07:03:10.229Z,25.26
2016-09-14T07:04:10.894Z,24.85
2016-09-14T07:05:11.605Z,24.76
2016-09-14T07:06:12.264Z,24.86
2016-09-14T07:07:12.941Z,24.8
2016-09-14T07:08:13.614Z,25.26
2016-09-14T07:09:14.286Z,25.55
2016-09-14T07:10:14.943Z,25.54
2016-09-14T07:11:15.593Z,25.77
2016-09-14T07:12:16.251Z,25.75
2016-09-14T07:13:16.907Z,25.65
2016-09-14T07:14:17.556Z,25.44
2016-09-14T07:15:18.224Z,25.46
2016-09-14T07:16:18.898Z,25.65
2016-09-14T07:17:19.565Z,25.93
2016-09-14T07:18:20.237Z,26
2016-09-14T07:19:20.909Z,26.33
2016-09-14T07:20:21.546Z,26.23
2016-09-14T07:21:22.214Z,26.36
2016-09-14T07:22:22.889Z,25.85
2016-09-14T07:23:23.551Z,25.46
2016-09-14T07:24:24.221Z,25.33
2016-09-14T07:25:24.898Z,25.77
2016-09-14T07:26:25.559Z,26.23
2016-09-14T07:27:26.276Z,26.22
2016-09-14T07:28:26.926Z,25.98
2016-09-14T07:29:27.658Z,26.15
2016-09-14T07:30:28.360Z,26.29
2016-09-14T07:31:29.095Z,26.13
2016-09-14T07:32:29.752Z,26.4
2016-09-14T07:33:30.421Z,26.13
2016-09-14T07:34:31.056Z,25.87
2016-09-14T07:35:31.717Z,25.91
2016-09-14T07:36:32.360Z,25.91
2016-09-14T07:37:33.017Z,25.75
2016-09-14T07:38:33.696Z,25.66
2016-09-14T07:39:34.337Z,25.41
2016-09-14T07:40:34.991Z,24.95
2016-09-14T07:41:35.638Z,25.03
2016-09-14T07:42:36.333Z,25.06
2016-09-14T07:43:36.966Z,25.23
2016-09-14T07:44:37.627Z,25.22
2016-09-14T07:45:38.270Z,25.35
2016-09-14T07:46:39.412Z,25.38
2016-09-14T07:47:40.162Z,25.36
2016-09-14T07:48:40.805Z,25.54
2016-09-14T07:49:41.702Z,25.59
2016-09-14T07:50:42.410Z,25.93
2016-09-14T07:51:43.521Z,25.68
2016-09-14T07:52:48.701Z,25.51
2016-09-14T07:53:49.464Z,25.58
2016-09-14T07:54:50.121Z,25.48
2016-09-14T07:55:50.788Z,25.65
2016-09-14T07:56:51.450Z,25.85
2016-09-14T07:57:52.123Z,26.15
2016-09-14T07:58:52.921Z,26.44
2016-09-14T07:59:54.064Z,26.62
2016-09-14T08:00:54.753Z,26.45
2016-09-14T08:01:55.412Z,26.33
2016-09-14T08:02:56.260Z,26.37
2016-09-14T08:03:57.834Z,26.45
2016-09-14T08:04:58.516Z,26.37
2016-09-14T08:05:59.179Z,26.22
2016-09-14T08:06:59.834Z,26.23
2016-09-14T08:08:00.482Z,26.23
2016-09-14T08:09:01.153Z,26.15
2016-09-14T08:10:01.825Z,26.1
2016-09-14T08:11:02.489Z,26.44
2016-09-14T08:12:03.234Z,26.48
2016-09-14T08:13:03.934Z,26.23
2016-09-14T08:14:04.589Z,26.41
2016-09-14T08:15:05.260Z,26.25
2016-09-14T08:16:05.907Z,25.44
2016-09-14T08:17:06.584Z,25.55
2016-09-14T08:18:07.252Z,25.54
2016-09-14T08:19:07.907Z,25.41
2016-09-14T08:20:08.549Z,25.54
2016-09-14T08:21:09.210Z,25.62
2016-09-14T08:22:09.849Z,25.81
2016-09-14T08:23:10.503Z,25.77
2016-09-14T08:24:11.153Z,25.73
2016-09-14T08:25:11.850Z,25.96
2016-09-14T08:26:12.510Z,25.87
2016-09-14T08:27:13.167Z,25.63
2016-09-14T08:28:13.827Z,25.46
2016-09-14T08:29:14.505Z,25.43
2016-09-14T08:30:15.217Z,25.44
2016-09-14T08:31:15.896Z,25.36
2016-09-14T08:32:16.565Z,25.46
2016-09-14T08:33:17.229Z,25.62
2016-09-14T08:34:17.901Z,25.62
2016-09-14T08:35:18.585Z,25.7
2016-09-14T08:36:19.247Z,25.84
2016-09-14T08:37:19.926Z,25.95
2016-09-14T08:38:20.599Z,26.22
2016-09-14T08:39:21.261Z,26.22
2016-09-14T08:40:21.945Z,26.36
2016-09-14T08:41:22.612Z,26.31
2016-09-14T08:42:23.280Z,26.29
2016-09-14T08:43:23.930Z,25.8
2016-09-14T08:44:24.580Z,25.69
2016-09-14T08:45:25.237Z,25.69
2016-09-14T08:46:25.937Z,25.54
2016-09-14T08:47:26.601Z,25.69
2016-09-14T08:48:27.276Z,25.91
2016-09-14T08:49:27.927Z,26.22
2016-09-14T08:50:28.601Z,26.37
2016-09-14T08:51:29.272Z,26.07
2016-09-14T08:52:29.964Z,26.1
2016-09-14T08:53:30.681Z,26.31
2016-09-14T08:54:31.348Z,26.29
2016-09-14T08:55:32.019Z,26.09
2016-09-14T08:56:32.678Z,26.23
2016-09-14T08:57:33.359Z,26.43
2016-09-14T08:58:34.027Z,26.34
2016-09-14T08:59:34.716Z,26.29
2016-09-14T09:00:35.372Z,26.47
2016-09-14T09:01:36.052Z,26.65
2016-09-14T09:02:36.711Z,26.52
2016-09-14T09:03:37.387Z,26.48
2016-09-14T09:04:38.064Z,26.23
2016-09-14T09:05:38.749Z,26.13
2016-09-14T09:06:39.448Z,26.33
2016-09-14T09:07:40.127Z,26.29
2016-09-14T09:08:40.779Z,26.19
2016-09-14T09:09:41.504Z,26.25
2016-09-14T09:10:42.213Z,25.96
2016-09-14T09:11:42.886Z,25.95
2016-09-14T09:12:43.595Z,26.05
2016-09-14T09:13:44.254Z,26.1
2016-09-14T09:14:44.946Z,26.21
2016-09-14T09:15:45.620Z,26.21
2016-09-14T09:16:46.283Z,26.34
2016-09-14T09:17:46.956Z,26.19
2016-09-14T09:18:47.623Z,26
2016-09-14T09:19:48.288Z,25.95
2016-09-14T09:20:48.961Z,25.87
2016-09-14T09:21:49.666Z,26.09
2016-09-14T09:22:50.369Z,26.26
2016-09-14T09:23:51.040Z,26.26
2016-09-14T09:24:51.705Z,26.22
2016-09-14T09:25:52.372Z,26.1
2016-09-14T09:26:53.040Z,26.13
2016-09-14T09:27:53.683Z,26.05
2016-09-14T09:28:54.349Z,25.83
2016-09-14T09:29:55.037Z,25.78
2016-09-14T09:30:55.664Z,26
2016-09-14T09:31:56.354Z,26.09
2016-09-14T09:32:57.024Z,26.09
2016-09-14T09:33:57.698Z,26.1
2016-09-14T09:34:58.336Z,26.13
2016-09-14T09:35:58.987Z,26.13
2016-09-14T09:36:59.630Z,26.07
2016-09-14T09:38:00.286Z,26.1
2016-09-14T09:39:00.954Z,26.1
2016-09-14T09:40:01.616Z,26.15
2016-09-14T09:41:02.266Z,26.09
2016-09-14T09:42:02.918Z,26.09
2016-09-14T09:43:03.578Z,25.95
2016-09-14T09:44:04.218Z,26.09
2016-09-14T09:45:04.866Z,26.16
2016-09-14T09:46:05.516Z,26.16
2016-09-14T09:47:06.194Z,26.28
2016-09-14T09:48:06.848Z,26.23
2016-09-14T09:49:07.500Z,26.28
2016-09-14T09:50:08.182Z,26.31
2016-09-14T09:51:08.837Z,26.28
2016-09-14T09:52:09.483Z,26.26
2016-09-14T09:53:10.147Z,26.38
2016-09-14T09:54:10.826Z,26.44
2016-09-14T09:55:11.479Z,26.53
2016-09-14T09:56:12.133Z,26.44
2016-09-14T09:57:12.777Z,26.45
2016-09-14T09:58:13.458Z,26.44
2016-09-14T09:59:14.142Z,26.55
2016-09-14T10:00:14.809Z,26.47
2016-09-14T10:01:15.482Z,26.47
2016-09-14T10:02:16.161Z,26.62
2016-09-14T10:03:16.814Z,26.63
2016-09-14T10:04:17.492Z,26.62
2016-09-14T10:05:18.162Z,26.65
2016-09-14T10:06:18.944Z,26.81
2016-09-14T10:07:19.660Z,26.78
2016-09-14T10:08:20.305Z,26.75
2016-09-14T10:09:20.967Z,26.7
2016-09-14T10:10:21.628Z,26.83
2016-09-14T10:11:22.913Z,26.78
2016-09-14T10:12:24.514Z,26.74
2016-09-14T10:13:25.179Z,26.77
2016-09-14T10:14:25.863Z,26.8
2016-09-14T10:15:26.520Z,26.84
2016-09-14T10:16:27.173Z,26.9
2016-09-14T10:17:27.840Z,26.81
2016-09-14T10:18:28.503Z,26.92
2016-09-14T10:19:29.162Z,26.93
2016-09-14T10:20:29.890Z,26.89
2016-09-14T10:21:30.551Z,26.9
2016-09-14T10:22:31.199Z,26.93
2016-09-14T10:23:31.848Z,26.92
2016-09-14T10:24:32.519Z,26.89
2016-09-14T10:25:33.190Z,26.83
2016-09-14T10:26:33.882Z,26.96
2016-09-14T10:27:34.542Z,26.92
2016-09-14T10:28:35.202Z,26.95
2016-09-14T10:29:35.842Z,26.93
2016-09-14T10:30:36.509Z,26.9
2016-09-14T10:31:37.138Z,26.92
2016-09-14T10:32:37.798Z,27.07
2016-09-14T10:33:38.464Z,27.14
2016-09-14T10:34:39.136Z,27.08
2016-09-14T10:35:39.836Z,27.08
2016-09-14T10:36:40.486Z,27.2
2016-09-14T10:37:41.127Z,27.17
2016-09-14T10:38:41.782Z,27.21
2016-09-14T10:39:42.443Z,27.27
2016-09-14T10:40:43.102Z,27.26
2016-09-14T10:41:43.756Z,27.21
2016-09-14T10:42:44.416Z,27.25
2016-09-14T10:43:45.984Z,27.21
2016-09-14T10:44:46.634Z,27.27
2016-09-14T10:45:47.383Z,27.3
2016-09-14T10:46:48.020Z,27.3
2016-09-14T10:47:48.702Z,27.35
2016-09-14T10:48:49.397Z,27.35
2016-09-14T10:49:50.075Z,27.32
2016-09-14T10:50:50.726Z,27.26
2016-09-14T10:51:51.568Z,27.29
2016-09-14T10:52:52.325Z,27.32
2016-09-14T10:53:52.988Z,27.27
2016-09-14T10:54:53.671Z,27.29
2016-09-14T10:55:54.456Z,27.35
2016-09-14T10:56:55.112Z,27.25
2016-09-14T10:57:55.829Z,27.3
2016-09-14T10:58:56.647Z,27.35
2016-09-14T10:59:57.417Z,27.42
2016-09-14T11:00:58.114Z,27.42
2016-09-14T11:01:58.778Z,27.48
2016-09-14T11:02:59.429Z,27.52
2016-09-14T11:04:00.097Z,27.48
2016-09-14T11:05:00.750Z,27.59
2016-09-14T11:06:01.411Z,27.58
2016-09-14T11:07:02.077Z,27.51
2016-09-14T11:08:02.720Z,27.59
2016-09-14T11:09:03.376Z,27.65
2016-09-14T11:10:04.028Z,27.55
2016-09-14T11:11:04.690Z,27.59
2016-09-14T11:12:05.363Z,27.58
2016-09-14T11:13:05.995Z,27.59
2016-09-14T11:14:06.662Z,27.6
2016-09-14T11:15:07.332Z,27.67
2016-09-14T11:16:08.026Z,27.68
2016-09-14T11:17:08.691Z,27.77
2016-09-14T11:18:09.343Z,27.63
2016-09-14T11:19:09.977Z,27.64
2016-09-14T11:20:10.640Z,27.67
2016-09-14T11:21:11.315Z,27.7
2016-09-14T11:22:11.981Z,27.65
2016-09-14T11:23:12.649Z,27.78
2016-09-14T11:24:13.346Z,27.7
2016-09-14T11:25:14.018Z,27.68
2016-09-14T11:26:14.680Z,27.8
2016-09-14T11:27:15.397Z,27.74
2016-09-14T11:28:16.301Z,27.85
2016-09-14T11:29:16.957Z,27.9
2016-09-14T11:30:17.627Z,27.87
2016-09-14T11:31:18.284Z,27.86
2016-09-14T11:32:18.957Z,27.85
2016-09-14T11:33:19.639Z,27.85
2016-09-14T11:34:20.298Z,27.83
